Aérodrome :
LOGIN :

S'inscrire | Disclaimer

   EN    FR    IT 

 










Légende :    VFR   VFR Marginal   IFR   IFR Intensif   IFR Très Intensif
Visi : 
Plafond : 
>= 8 km
>= 3000ft
5 à 8 km
1000 à 3000 ft
1500m à 5 km
500 à 1000 ft
800 à 1500m
200 à 500 ft
< 800m
< 200 ft
Symboles :   Orages  Brouillard  Fortes neiges  Fortes précipitations  Vent > 20 kt
SIGMETs :   Divers  Orages  Givrage  Turbulence  Onde Orograph.  Cendres Volcan.







- Altitude de l'aérodrome : 138 ft
- Code IATA : RLG


ETNL - Rostock Laage

DERNIER METAR :
  • 131255Z 19011G21KT 9999 FEW050 BKN100 03/M01 Q1001 BLU BLU

METARs EXPIRÉS :
  • 131220Z 19013KT 9999 FEW050 SCT130 BKN190 03/M01 Q1002 BLU BLU
  • 131146Z 20013KT 9999 SCT050 BKN200 03/M01 Q1003 BLU+BLU+ BECMG BLU
  • 131120Z 19013KT 9999 FEW040 BKN200 02/M02 Q1004 BLU+BLU+ BECMG BLU
  • 131020Z 19011KT 9999 FEW130 SCT220 02/M02 Q1005 BLU+BLU+

TAF TAF ETNL
Valide du 13 à 12h jusqu'au 13 à 21h UTC


131120Z 1312/1321 18010G20KT 9999 NSW SCT080 BKN130
BECMG 1315/1316 17012G22KT 4000 SNRA BKN008 OVC020
TEMPO 1316/1321 17015G25KT 1200 SN BKN002 OVC010 BY ETGL
Pas de NOTAMs connus pour ce terrain.



MET'MAP, la Météo Aéronautique d'un coup d'oeil ! - Copyright ORBIFLY Décembre 2007 - Disclaimer

ORBIFLY MET'MAP TEAM :

Programmation & Développement : Alexandra Zaïnal
Conception & Développement : Baudouin d'Aumeries
Co-Programmation & Développement : Marc-Olivier Méhu
Soutien technique & logistique : Manuel Goepfert

Contact : metmap@orbifly.com




SOURCES & CREDITS :

   NOAA